createdAt,value
2018-09-12T00:00:02.053Z,9.58
2018-09-12T00:02:29.801Z,6.00
2018-09-12T00:04:57.528Z,7.85
2018-09-12T00:07:25.223Z,6.12
2018-09-12T00:09:52.984Z,6.67
2018-09-12T00:12:20.677Z,6.22
2018-09-12T00:14:48.420Z,7.65
2018-09-12T00:17:16.812Z,5.30
2018-09-12T00:19:44.528Z,7.72
2018-09-12T00:22:12.324Z,8.25
2018-09-12T00:24:40.048Z,7.17
2018-09-12T00:27:07.821Z,5.22
2018-09-12T00:29:35.531Z,6.87
2018-09-12T00:32:04.485Z,4.67
2018-09-12T00:34:32.201Z,6.60
2018-09-12T00:37:00.121Z,7.15
2018-09-12T00:39:27.823Z,6.17
2018-09-12T00:41:55.539Z,6.20
2018-09-12T00:44:23.385Z,6.87
2018-09-12T00:46:51.766Z,7.22
2018-09-12T00:49:19.489Z,6.17
2018-09-12T00:51:47.533Z,5.70
2018-09-12T00:54:15.241Z,5.83
2018-09-12T00:56:42.956Z,6.72
2018-09-12T00:59:10.670Z,5.50
2018-09-12T01:01:38.447Z,6.92
2018-09-12T01:04:07.102Z,6.87
2018-09-12T01:06:34.784Z,6.12
2018-09-12T01:09:02.693Z,7.20
2018-09-12T01:11:30.464Z,5.17
2018-09-12T01:13:59.167Z,6.20
2018-09-12T01:16:26.952Z,8.73
2018-09-12T01:18:54.792Z,7.25
2018-09-12T01:21:22.652Z,6.92
2018-09-12T01:23:50.481Z,5.95
2018-09-12T01:26:18.232Z,7.28
2018-09-12T01:28:45.946Z,7.53
2018-09-12T01:31:13.664Z,10.38
2018-09-12T01:33:41.381Z,7.25
2018-09-12T01:36:09.954Z,8.80
2018-09-12T01:38:37.717Z,8.43
2018-09-12T01:41:07.732Z,7.60
2018-09-12T01:43:39.083Z,8.35
2018-09-12T01:46:07.044Z,8.93
2018-09-12T01:48:34.778Z,9.10
2018-09-12T01:51:02.843Z,9.93
2018-09-12T01:53:30.604Z,10.55
2018-09-12T01:55:58.376Z,11.57
2018-09-12T01:58:26.160Z,12.13
2018-09-12T02:00:53.995Z,12.75
2018-09-12T02:03:21.863Z,13.58
2018-09-12T02:05:49.705Z,11.78
2018-09-12T02:08:17.572Z,11.57
2018-09-12T02:10:45.659Z,11.12
2018-09-12T02:13:13.484Z,11.30
2018-09-12T02:15:41.237Z,13.38
2018-09-12T02:18:09.932Z,11.33
2018-09-12T02:20:37.841Z,12.47
2018-09-12T02:23:06.687Z,7.83
2018-09-12T02:25:34.504Z,11.38
2018-09-12T02:28:02.308Z,13.90
2018-09-12T02:30:30.917Z,12.28
2018-09-12T02:32:58.798Z,13.00
2018-09-12T02:35:26.576Z,12.88
2018-09-12T02:37:54.374Z,12.75
2018-09-12T02:40:22.106Z,13.32
2018-09-12T02:42:49.917Z,12.95
2018-09-12T02:45:17.726Z,13.58
2018-09-12T02:47:45.543Z,12.78
2018-09-12T02:50:14.229Z,9.75
2018-09-12T02:52:42.438Z,12.93
2018-09-12T02:55:11.955Z,12.53
2018-09-12T02:57:39.702Z,9.23
2018-09-12T03:00:08.695Z,6.87
2018-09-12T03:02:36.561Z,10.45
2018-09-12T03:05:04.321Z,13.13
2018-09-12T03:07:32.030Z,13.15
2018-09-12T03:09:59.782Z,15.18
2018-09-12T03:12:27.526Z,12.07
2018-09-12T03:14:55.378Z,12.68
2018-09-12T03:17:23.100Z,14.73
2018-09-12T03:19:50.783Z,9.85
2018-09-12T03:22:18.471Z,9.03
2018-09-12T03:24:46.203Z,13.68
2018-09-12T03:27:14.503Z,13.22
2018-09-12T03:29:42.192Z,7.12
2018-09-12T03:32:09.927Z,12.58
2018-09-12T03:34:44.833Z,13.00
2018-09-12T03:37:12.529Z,11.08
2018-09-12T03:39:40.279Z,12.13
2018-09-12T03:42:07.972Z,12.53
2018-09-12T03:44:35.659Z,14.75
2018-09-12T03:47:03.437Z,8.98
2018-09-12T03:49:31.234Z,14.38
2018-09-12T03:51:59.830Z,13.15
2018-09-12T03:54:27.538Z,14.25
2018-09-12T03:56:59.119Z,13.58
2018-09-12T03:59:26.815Z,10.60
2018-09-12T04:01:54.541Z,9.80
2018-09-12T04:04:22.265Z,15.25
2018-09-12T04:06:49.999Z,10.45
2018-09-12T04:09:18.341Z,7.90
2018-09-12T04:11:46.112Z,11.93
2018-09-12T04:14:13.789Z,8.70
2018-09-12T04:16:41.560Z,5.67
2018-09-12T04:19:17.723Z,8.20
2018-09-12T04:21:45.430Z,9.45
2018-09-12T04:24:13.171Z,9.00
2018-09-12T04:26:41.010Z,11.83
2018-09-12T04:29:08.751Z,9.60
2018-09-12T04:31:36.660Z,8.95
2018-09-12T04:34:04.354Z,9.93
2018-09-12T04:36:32.052Z,12.33
2018-09-12T04:38:59.771Z,9.10
2018-09-12T04:41:27.542Z,7.05
2018-09-12T04:43:55.262Z,10.30
2018-09-12T04:46:23.010Z,12.15
2018-09-12T04:48:51.264Z,11.25
2018-09-12T04:51:19.002Z,7.95
2018-09-12T04:53:51.187Z,8.15
2018-09-12T04:56:18.955Z,13.15
2018-09-12T04:58:46.651Z,12.47
2018-09-12T05:01:14.406Z,12.05
2018-09-12T05:03:42.250Z,12.98
2018-09-12T05:06:10.038Z,12.15
2018-09-12T05:08:37.902Z,10.18
2018-09-12T05:11:05.734Z,13.13
2018-09-12T05:13:33.461Z,14.00
2018-09-12T05:16:01.195Z,16.27
2018-09-12T05:18:29.929Z,14.70
2018-09-12T05:20:57.846Z,15.38
2018-09-12T05:23:26.167Z,13.40
2018-09-12T05:25:53.894Z,10.50
2018-09-12T05:28:21.695Z,14.25
2018-09-12T05:30:49.375Z,8.88
2018-09-12T05:33:17.283Z,17.37
2018-09-12T05:35:45.176Z,15.38
2018-09-12T05:38:12.888Z,18.55
2018-09-12T05:40:40.592Z,15.50
2018-09-12T05:43:08.356Z,11.60
2018-09-12T05:45:36.059Z,16.62
2018-09-12T05:48:04.047Z,16.80
2018-09-12T05:50:31.751Z,16.32
2018-09-12T05:52:59.495Z,14.23
2018-09-12T05:55:27.477Z,11.75
2018-09-12T05:57:55.210Z,17.35
2018-09-12T06:00:23.629Z,15.08
2018-09-12T06:02:51.401Z,12.25
2018-09-12T06:05:19.136Z,15.05
2018-09-12T06:07:46.817Z,12.73
2018-09-12T06:10:14.577Z,14.75
2018-09-12T06:12:42.270Z,12.23
2018-09-12T06:15:10.158Z,14.23
2018-09-12T06:17:37.809Z,13.93
2018-09-12T06:20:05.761Z,8.73
2018-09-12T06:22:35.397Z,16.55
2018-09-12T06:25:03.183Z,13.38
2018-09-12T06:27:31.248Z,9.00
2018-09-12T06:29:58.991Z,12.90
2018-09-12T06:32:26.681Z,12.00
2018-09-12T06:34:54.343Z,15.80
2018-09-12T06:37:22.032Z,16.12
2018-09-12T06:39:49.774Z,8.90
2018-09-12T06:42:17.575Z,7.37
2018-09-12T06:44:45.426Z,10.75
2018-09-12T06:47:13.131Z,12.18
2018-09-12T06:49:41.241Z,11.85
2018-09-12T06:52:09.106Z,12.23
2018-09-12T06:54:36.892Z,10.03
2018-09-12T06:57:04.688Z,13.22
2018-09-12T06:59:32.936Z,10.13
2018-09-12T07:02:00.656Z,10.88
2018-09-12T07:04:28.394Z,10.30
2018-09-12T07:06:56.183Z,8.10
2018-09-12T07:09:23.914Z,9.15
2018-09-12T07:11:52.348Z,5.47
2018-09-12T07:14:20.504Z,10.20
2018-09-12T07:16:48.181Z,8.03
2018-09-12T07:19:15.954Z,11.80
2018-09-12T07:21:43.747Z,13.48
2018-09-12T07:24:11.567Z,9.75
2018-09-12T07:26:39.277Z,12.90
2018-09-12T07:29:08.497Z,13.45
2018-09-12T07:31:36.203Z,14.30
2018-09-12T07:35:33.607Z,9.85
2018-09-12T07:38:01.541Z,14.40
2018-09-12T07:40:29.985Z,10.80
2018-09-12T07:42:58.453Z,9.73
2018-09-12T07:45:27.082Z,14.15
2018-09-12T07:47:55.104Z,16.95
2018-09-12T07:50:22.934Z,18.48
2018-09-12T07:52:51.404Z,15.25
2018-09-12T07:55:19.907Z,13.40
2018-09-12T07:57:47.648Z,13.13
2018-09-12T08:00:15.659Z,15.40
2018-09-12T08:02:44.387Z,13.80
2018-09-12T08:05:13.213Z,17.35
2018-09-12T08:07:42.066Z,11.88
2018-09-12T08:10:09.880Z,7.33
2018-09-12T08:12:37.671Z,17.75
2018-09-12T08:15:05.549Z,18.05
2018-09-12T08:17:33.351Z,18.75
2018-09-12T08:20:01.350Z,11.18
2018-09-12T08:22:30.355Z,14.25
2018-09-12T08:24:58.211Z,13.50
2018-09-12T08:27:26.626Z,11.97
2018-09-12T08:29:54.754Z,16.37
2018-09-12T08:32:23.833Z,7.28
2018-09-12T08:34:51.834Z,4.15
2018-09-12T08:37:20.456Z,3.90
2018-09-12T08:39:48.884Z,2.98
2018-09-12T08:42:17.467Z,1.70
2018-09-12T08:44:46.343Z,2.92
2018-09-12T08:47:14.084Z,2.17
2018-09-12T08:49:41.815Z,0.57
2018-09-12T08:52:09.630Z,1.52
2018-09-12T08:54:37.342Z,1.72
2018-09-12T08:57:05.149Z,1.00
2018-09-12T08:59:32.944Z,0.78
2018-09-12T09:02:00.753Z,2.33
2018-09-12T09:04:28.503Z,1.45
2018-09-12T09:06:56.269Z,1.10
2018-09-12T09:09:24.475Z,1.20
2018-09-12T09:11:52.257Z,2.02
2018-09-12T09:14:20.916Z,1.52
2018-09-12T09:16:48.714Z,1.90
2018-09-12T09:19:16.445Z,1.15
2018-09-12T09:21:45.437Z,1.05
2018-09-12T09:24:13.752Z,1.87
2018-09-12T09:26:41.755Z,1.45
2018-09-12T09:29:11.008Z,1.85
2018-09-12T09:31:38.847Z,1.40
2018-09-12T09:34:07.567Z,1.37
2018-09-12T09:36:35.490Z,0.80
2018-09-12T09:39:05.704Z,1.12
2018-09-12T09:41:33.400Z,1.05
2018-09-12T09:44:01.118Z,1.67
2018-09-12T09:46:28.853Z,1.02
2018-09-12T09:48:56.606Z,1.15
2018-09-12T09:51:24.491Z,1.82
2018-09-12T09:53:52.215Z,0.98
2018-09-12T09:56:19.990Z,1.52
2018-09-12T09:58:48.629Z,1.10
2018-09-12T10:01:22.173Z,1.10
2018-09-12T10:03:55.517Z,1.65
2018-09-12T10:07:03.370Z,1.25
2018-09-12T10:09:32.270Z,2.00
2018-09-12T10:12:00.929Z,1.00
2018-09-12T10:14:28.731Z,1.30
2018-09-12T10:16:57.233Z,1.87
2018-09-12T10:19:24.961Z,1.20
2018-09-12T10:21:52.977Z,1.12
2018-09-12T10:24:21.724Z,0.95
2018-09-12T10:26:49.600Z,2.95
2018-09-12T10:29:17.471Z,2.37
2018-09-12T10:31:46.073Z,1.45
2018-09-12T10:34:13.847Z,1.42
2018-09-12T10:36:42.733Z,1.40
2018-09-12T10:39:12.138Z,1.85
2018-09-12T10:41:41.668Z,1.67
2018-09-12T10:44:09.540Z,1.70
2018-09-12T10:46:37.504Z,1.50
2018-09-12T10:49:13.719Z,2.55
2018-09-12T10:51:41.484Z,2.02
2018-09-12T10:54:09.732Z,1.98
2018-09-12T10:56:37.785Z,2.12
2018-09-12T10:59:05.635Z,2.87
2018-09-12T11:01:34.116Z,1.62
2018-09-12T11:04:01.910Z,1.72
2018-09-12T11:06:29.739Z,2.77
2018-09-12T11:08:57.557Z,1.70
2018-09-12T11:11:25.636Z,2.42
2018-09-12T11:13:53.602Z,2.58
2018-09-12T11:16:21.409Z,1.50
2018-09-12T11:18:51.087Z,1.67
2018-09-12T11:21:18.779Z,2.00
2018-09-12T11:23:47.420Z,1.10
2018-09-12T11:26:15.226Z,1.90
2018-09-12T11:28:44.709Z,1.57
2018-09-12T11:31:12.485Z,2.65
2018-09-12T11:33:41.357Z,1.82
2018-09-12T11:36:09.184Z,2.20
2018-09-12T11:38:36.907Z,1.60
2018-09-12T11:41:04.733Z,1.37
2018-09-12T11:43:34.685Z,1.95
2018-09-12T11:46:10.438Z,1.55
2018-09-12T11:48:38.835Z,1.62
2018-09-12T11:51:06.796Z,1.60
2018-09-12T11:53:34.816Z,1.77
2018-09-12T11:56:02.920Z,1.45
2018-09-12T11:58:32.594Z,1.52
2018-09-12T12:01:02.191Z,1.25
2018-09-12T12:03:31.686Z,1.85
2018-09-12T12:06:00.227Z,0.93
2018-09-12T12:08:30.458Z,2.65
2018-09-12T12:11:00.757Z,1.07
2018-09-12T12:13:29.466Z,1.57
2018-09-12T12:15:58.505Z,1.95
2018-09-12T12:18:27.508Z,1.25
2018-09-12T12:20:56.245Z,1.02
2018-09-12T12:23:24.198Z,2.05
2018-09-12T12:25:52.904Z,1.35
2018-09-12T12:28:21.554Z,0.82
2018-09-12T12:30:50.176Z,0.85
2018-09-12T12:33:18.912Z,2.65
2018-09-12T12:35:47.091Z,1.12
2018-09-12T12:38:16.620Z,1.37
2018-09-12T12:40:47.362Z,1.27
2018-09-12T12:43:17.703Z,1.70
2018-09-12T12:45:45.853Z,3.00
2018-09-12T12:48:13.692Z,2.00
2018-09-12T12:50:42.271Z,2.10
2018-09-12T12:53:11.028Z,1.70
2018-09-12T12:55:39.972Z,1.17
2018-09-12T12:58:07.779Z,1.47
2018-09-12T13:00:35.998Z,1.15
2018-09-12T13:03:05.222Z,0.72
2018-09-12T13:05:34.059Z,0.70
2018-09-12T13:08:02.322Z,1.20
2018-09-12T13:10:31.164Z,2.00
2018-09-12T13:12:59.625Z,2.12
2018-09-12T13:15:27.467Z,1.10
2018-09-12T13:17:56.140Z,1.72
2018-09-12T13:20:26.911Z,2.12
2018-09-12T13:22:55.389Z,0.98
2018-09-12T13:25:23.451Z,2.87
2018-09-12T13:27:59.860Z,2.08
2018-09-12T13:30:28.427Z,0.95
2018-09-12T13:32:56.936Z,1.45
2018-09-12T13:35:25.174Z,1.17
2018-09-12T13:37:55.083Z,2.02
2018-09-12T13:40:23.713Z,1.25
2018-09-12T13:42:51.630Z,0.75
2018-09-12T13:46:49.252Z,0.93
2018-09-12T13:49:17.477Z,1.45
2018-09-12T13:51:46.010Z,1.70
2018-09-12T13:54:14.033Z,1.12
2018-09-12T13:56:42.568Z,1.80
2018-09-12T13:59:11.489Z,1.27
2018-09-12T14:01:39.253Z,1.47
2018-09-12T14:04:07.605Z,1.62
2018-09-12T14:06:35.764Z,1.20
2018-09-12T14:09:06.377Z,1.72
2018-09-12T14:11:35.738Z,0.80
2018-09-12T14:14:06.478Z,0.72
2018-09-12T14:16:34.212Z,1.02
2018-09-12T14:19:02.878Z,1.15
2018-09-12T14:21:32.161Z,0.50
2018-09-12T14:23:59.893Z,1.27
2018-09-12T14:26:27.656Z,1.65
2018-09-12T14:28:56.454Z,1.30
2018-09-12T14:31:24.901Z,1.70
2018-09-12T14:33:53.777Z,0.35
2018-09-12T14:36:21.631Z,1.17
2018-09-12T14:38:49.936Z,0.72
2018-09-12T14:41:17.684Z,0.88
2018-09-12T14:43:45.435Z,0.95
2018-09-12T14:46:13.761Z,1.60
2018-09-12T14:48:41.989Z,0.40
2018-09-12T14:51:11.221Z,0.30
2018-09-12T14:53:40.673Z,1.50
2018-09-12T14:56:09.388Z,0.62
2018-09-12T14:58:39.064Z,0.50
2018-09-12T15:01:06.897Z,0.45
2018-09-12T15:03:35.766Z,4.10
2018-09-12T15:06:04.238Z,1.27
2018-09-12T15:08:31.942Z,1.87
2018-09-12T15:11:00.539Z,0.40
2018-09-12T15:13:29.979Z,0.95
2018-09-12T15:15:58.566Z,1.10
2018-09-12T15:18:26.593Z,0.62
2018-09-12T15:20:56.141Z,1.10
2018-09-12T15:23:25.696Z,0.55
2018-09-12T15:25:55.517Z,1.05
2018-09-12T15:28:23.520Z,1.32
2018-09-12T15:30:52.557Z,0.55
2018-09-12T15:33:25.809Z,0.72
2018-09-12T15:35:54.902Z,1.20
2018-09-12T15:38:24.752Z,0.55
2018-09-12T15:40:53.753Z,4.15
2018-09-12T15:43:23.617Z,0.90
2018-09-12T15:45:52.566Z,1.95
2018-09-12T15:48:20.856Z,0.60
2018-09-12T15:50:49.962Z,0.45
2018-09-12T15:53:18.310Z,1.77
2018-09-12T15:55:46.279Z,1.95
2018-09-12T15:58:14.836Z,1.27
2018-09-12T16:00:43.834Z,1.37
2018-09-12T16:03:13.980Z,1.15
2018-09-12T16:05:43.234Z,0.65
2018-09-12T16:08:13.090Z,1.05
2018-09-12T16:10:41.217Z,0.95
2018-09-12T16:13:10.671Z,1.62
2018-09-12T16:15:40.633Z,1.37
2018-09-12T16:18:09.470Z,0.50
2018-09-12T16:20:37.773Z,3.02
2018-09-12T16:23:06.883Z,0.98
2018-09-12T16:25:36.346Z,1.05
2018-09-12T16:28:04.625Z,0.78
2018-09-12T16:30:32.377Z,2.80
2018-09-12T16:33:01.835Z,1.52
2018-09-12T16:35:30.361Z,2.75
2018-09-12T16:37:58.240Z,1.25
2018-09-12T16:40:26.863Z,0.70
2018-09-12T16:43:02.853Z,0.70
2018-09-12T16:45:31.739Z,1.55
2018-09-12T16:47:59.752Z,0.93
2018-09-12T16:50:27.914Z,0.50
2018-09-12T16:52:56.524Z,1.77
2018-09-12T16:55:25.472Z,2.25
2018-09-12T16:57:54.387Z,1.02
2018-09-12T17:00:22.224Z,1.92
2018-09-12T17:02:50.130Z,1.75
2018-09-12T17:05:17.911Z,1.45
2018-09-12T17:07:49.904Z,1.27
2018-09-12T17:10:20.074Z,1.62
2018-09-12T17:12:47.933Z,1.15
2018-09-12T17:15:18.964Z,0.88
2018-09-12T17:17:47.796Z,1.20
2018-09-12T17:20:16.921Z,1.55
2018-09-12T17:22:45.896Z,3.08
2018-09-12T17:25:15.010Z,1.98
2018-09-12T17:27:43.953Z,1.42
2018-09-12T17:30:11.963Z,1.82
2018-09-12T17:32:40.526Z,2.17
2018-09-12T17:35:10.444Z,1.67
2018-09-12T17:37:40.869Z,2.08
2018-09-12T17:40:10.090Z,1.40
2018-09-12T17:42:39.400Z,1.77
2018-09-12T17:45:09.834Z,1.47
2018-09-12T17:47:40.855Z,2.70
2018-09-12T17:50:11.174Z,2.17
2018-09-12T17:52:39.239Z,2.58
2018-09-12T17:55:09.922Z,2.27
2018-09-12T17:57:39.406Z,2.87
2018-09-12T18:00:07.408Z,3.42
2018-09-12T18:02:35.916Z,3.17
2018-09-12T18:05:04.277Z,3.52
2018-09-12T18:07:32.969Z,2.08
2018-09-12T18:10:02.813Z,3.12
2018-09-12T18:12:33.260Z,2.15
2018-09-12T18:15:04.322Z,3.60
2018-09-12T18:30:42.962Z,2.55
2018-09-12T18:33:12.491Z,3.67
2018-09-12T18:35:42.061Z,2.45
2018-09-12T18:38:13.154Z,2.65
2018-09-12T18:40:42.206Z,2.80
2018-09-12T18:43:10.546Z,2.70
2018-09-12T18:45:38.207Z,2.55
2018-09-12T18:48:06.177Z,2.52
2018-09-12T18:50:34.163Z,2.37
2018-09-12T18:53:03.085Z,1.70
2018-09-12T18:55:31.563Z,1.65
2018-09-12T18:58:00.574Z,3.72
2018-09-12T19:00:28.549Z,2.72
2018-09-12T19:02:57.693Z,3.80
2018-09-12T19:05:25.762Z,2.65
2018-09-12T19:07:53.623Z,1.62
2018-09-12T19:10:21.620Z,2.77
2018-09-12T19:12:51.906Z,2.50
2018-09-12T19:15:21.913Z,2.75
2018-09-12T19:17:50.917Z,3.77
2018-09-12T19:20:20.368Z,2.02
2018-09-12T19:22:49.803Z,4.15
2018-09-12T19:25:19.318Z,3.42
2018-09-12T19:27:48.843Z,3.52
2018-09-12T19:30:17.475Z,2.33
2018-09-12T19:32:45.558Z,1.98
2018-09-12T19:35:15.282Z,2.67
2018-09-12T19:37:43.402Z,2.72
2018-09-12T19:40:12.098Z,3.60
2018-09-12T19:42:44.166Z,6.40
2018-09-12T19:45:12.365Z,2.50
2018-09-12T19:47:40.965Z,4.00
2018-09-12T19:50:09.115Z,1.65
2018-09-12T19:52:37.257Z,2.50
2018-09-12T19:55:06.716Z,2.62
2018-09-12T19:57:35.539Z,3.40
2018-09-12T20:00:04.941Z,2.98
2018-09-12T20:02:33.583Z,2.87
2018-09-12T20:05:02.459Z,4.08
2018-09-12T20:07:31.751Z,3.17
2018-09-12T20:10:00.302Z,2.42
2018-09-12T20:12:29.129Z,2.72
2018-09-12T20:14:57.004Z,3.60
2018-09-12T20:17:27.900Z,3.80
2018-09-12T20:19:57.177Z,1.70
2018-09-12T20:22:25.102Z,2.58
2018-09-12T20:24:53.725Z,4.60
2018-09-12T20:27:27.411Z,2.90
2018-09-12T20:29:55.504Z,3.62
2018-09-12T20:32:23.896Z,4.53
2018-09-12T20:34:53.069Z,2.95
2018-09-12T20:37:22.683Z,6.33
2018-09-12T20:39:50.947Z,3.20
2018-09-12T20:42:19.031Z,2.72
2018-09-12T20:44:48.906Z,2.92
2018-09-12T20:47:17.803Z,2.83
2018-09-12T20:49:46.977Z,3.35
2018-09-12T20:52:14.772Z,2.92
2018-09-12T20:54:43.181Z,4.03
2018-09-12T20:57:11.613Z,3.52
2018-09-12T20:59:40.137Z,2.27
2018-09-12T21:02:09.353Z,3.65
2018-09-12T21:04:37.443Z,2.77
2018-09-12T21:07:06.505Z,3.55
2018-09-12T21:09:34.870Z,4.87
2018-09-12T21:12:04.477Z,4.60
2018-09-12T21:14:32.220Z,2.08
2018-09-12T21:17:01.658Z,3.42
2018-09-12T21:19:36.868Z,4.65
2018-09-12T21:22:05.765Z,3.52
2018-09-12T21:24:33.860Z,2.33
2018-09-12T21:27:06.889Z,4.92
2018-09-12T21:29:34.749Z,2.02
2018-09-12T21:32:03.283Z,3.62
2018-09-12T21:34:32.038Z,2.47
2018-09-12T21:37:01.036Z,7.37
2018-09-12T21:39:29.932Z,3.05
2018-09-12T21:41:57.713Z,3.47
2018-09-12T21:44:25.861Z,3.35
2018-09-12T21:46:54.311Z,3.80
2018-09-12T21:49:22.158Z,3.98
2018-09-12T21:51:49.973Z,3.05
2018-09-12T21:54:17.847Z,2.15
2018-09-12T21:56:47.752Z,3.25
2018-09-12T21:59:15.647Z,2.52
2018-09-12T22:01:47.259Z,5.20
2018-09-12T22:04:15.024Z,3.58
2018-09-12T22:06:43.437Z,2.35
2018-09-12T22:09:13.666Z,5.25
2018-09-12T22:11:41.501Z,3.92
2018-09-12T22:14:09.828Z,2.90
2018-09-12T22:16:37.641Z,3.77
2018-09-12T22:19:06.114Z,4.53
2018-09-12T22:21:33.921Z,4.47
2018-09-12T22:24:01.942Z,4.72
2018-09-12T22:26:30.406Z,4.28
2018-09-12T22:28:59.626Z,4.28
2018-09-12T22:31:27.888Z,3.00
2018-09-12T22:33:55.665Z,3.25
2018-09-12T22:36:23.411Z,3.08
2018-09-12T22:38:51.973Z,4.05
2018-09-12T22:41:20.091Z,4.33
2018-09-12T22:43:47.894Z,4.17
2018-09-12T22:46:15.667Z,2.55
2018-09-12T22:48:43.676Z,3.22
2018-09-12T22:51:11.418Z,4.90
2018-09-12T22:53:39.141Z,4.03
2018-09-12T22:56:07.543Z,3.65
2018-09-12T22:58:35.365Z,3.33
2018-09-12T23:01:03.780Z,3.85
2018-09-12T23:03:31.568Z,2.52
2018-09-12T23:05:59.415Z,3.45
2018-09-12T23:08:27.105Z,3.98
2018-09-12T23:11:03.899Z,4.42
2018-09-12T23:13:31.649Z,4.60
2018-09-12T23:15:59.473Z,3.20
2018-09-12T23:18:27.223Z,3.00
2018-09-12T23:20:54.951Z,3.02
2018-09-12T23:23:22.724Z,3.60
2018-09-12T23:25:50.581Z,2.98
2018-09-12T23:28:18.530Z,3.17
2018-09-12T23:30:46.389Z,3.10
2018-09-12T23:33:14.160Z,4.53
2018-09-12T23:35:41.893Z,3.30
2018-09-12T23:38:09.608Z,6.03
2018-09-12T23:40:37.633Z,2.77
2018-09-12T23:43:06.892Z,2.60
2018-09-12T23:45:35.192Z,3.22
2018-09-12T23:48:02.948Z,3.87
2018-09-12T23:50:30.842Z,4.58
2018-09-12T23:52:59.540Z,4.15
2018-09-12T23:55:29.201Z,4.05
2018-09-12T23:57:57.020Z,4.15
